Time;durP1;ratioP1;P1;durP2;ratioP2;P2;SDS_P1;SDS_P2;PMS_P1;PMS_P2;Temp;Humidity;BMP_temperature;BMP_pressure;BME280_temperature;BME280_humidity;BME280_pressure;Samples;Min_cycle;Max_cycle;Signal;HPM_P1;HPM_P2
2022/02/24 00:02:06;;;;;;;;;22.33;21.67;;;;;;;;5099917;28;11481;-88
2022/02/24 00:04:32;;;;;;;;;23.33;21.00;;;;;;;;5099011;28;14832;-86
2022/02/24 00:06:57;;;;;;;;;21.33;18.67;;;;;;;;5101979;28;11445;-86
2022/02/24 00:09:22;;;;;;;;;21.00;20.00;;;;;;;;5102114;28;12460;-88
2022/02/24 00:11:48;;;;;;;;;22.67;19.33;;;;;;;;5101395;28;12279;-88
2022/02/24 00:14:13;;;;;;;;;19.67;18.00;;;;;;;;5102030;28;12590;-87
2022/02/24 00:16:39;;;;;;;;;20.00;20.00;;;;;;;;5101487;28;14641;-88
2022/02/24 00:19:04;;;;;;;;;22.33;14.00;;;;;;;;5101248;28;12867;-87
2022/02/24 00:21:29;;;;;;;;;24.00;18.67;;;;;;;;5099553;28;14415;-87
2022/02/24 00:23:57;;;;;;;;;23.67;19.00;;;;;;;;5099512;28;13438;-86
2022/02/24 00:26:22;;;;;;;;;21.67;20.33;;;;;;;;5101731;28;11467;-86
2022/02/24 00:28:47;;;;;;;;;25.00;21.00;;;;;;;;5101446;28;12720;-85
2022/02/24 00:31:13;;;;;;;;;17.00;11.00;;;;;;;;5101818;28;11501;-86
2022/02/24 00:33:39;;;;;;;;;22.33;20.00;;;;;;;;5101657;28;10664;-86
2022/02/24 00:36:05;;;;;;;;;21.33;21.33;;;;;;;;5100540;28;12754;-87
2022/02/24 00:38:30;;;;;;;;;19.33;18.00;;;;;;;;5099575;28;13366;-84
2022/02/24 00:40:55;;;;;;;;;23.33;21.00;;;;;;;;5101001;28;14013;-86
2022/02/24 00:43:21;;;;;;;;;24.33;18.00;;;;;;;;5100820;28;10337;-87
2022/02/24 00:45:46;;;;;;;;;21.00;18.00;;;;;;;;5101578;28;9487;-85
2022/02/24 00:48:11;;;;;;;;;22.00;17.33;;;;;;;;5100955;28;9134;-88
2022/02/24 00:50:37;;;;;;;;;20.00;18.33;;;;;;;;5101528;28;11370;-86
2022/02/24 00:53:02;;;;;;;;;23.33;18.33;;;;;;;;5099923;28;8947;-87
2022/02/24 00:55:28;;;;;;;;;17.67;16.33;;;;;;;;5101760;28;8766;-87
2022/02/24 00:57:56;;;;;;;;;15.67;14.33;;;;;;;;5100939;28;12412;-86
2022/02/24 01:00:21;;;;;;;;;20.00;18.00;;;;;;;;5101914;28;8893;-86
2022/02/24 01:02:47;;;;;;;;;21.67;21.00;;;;;;;;5099207;28;15325;-86
2022/02/24 01:05:12;;;;;;;;;21.00;19.00;;;;;;;;5101706;28;11415;-85
2022/02/24 01:07:37;;;;;;;;;24.33;20.33;;;;;;;;5102104;28;12223;-88
2022/02/24 01:10:04;;;;;;;;;21.00;20.33;;;;;;;;5105320;28;12597;-86
2022/02/24 01:12:29;;;;;;;;;13.67;11.67;;;;;;;;5104254;28;9147;-86
2022/02/24 01:14:54;;;;;;;;;19.00;19.00;;;;;;;;5102831;28;13238;-85
2022/02/24 01:17:20;;;;;;;;;21.33;18.00;;;;;;;;5101222;28;11439;-88
2022/02/24 01:19:45;;;;;;;;;24.33;16.33;;;;;;;;5100298;28;12178;-87
2022/02/24 01:22:10;;;;;;;;;17.67;17.00;;;;;;;;5100631;28;11743;-87
2022/02/24 01:24:36;;;;;;;;;15.67;15.67;;;;;;;;5100565;28;13558;-87
2022/02/24 01:27:01;;;;;;;;;18.33;17.33;;;;;;;;5100733;28;11393;-82
2022/02/24 01:29:27;;;;;;;;;18.00;18.00;;;;;;;;5099521;28;11558;-83
2022/02/24 01:31:52;;;;;;;;;18.33;18.33;;;;;;;;5099630;28;11051;-83
2022/02/24 01:34:19;;;;;;;;;21.00;18.67;;;;;;;;5099900;28;9058;-83
2022/02/24 01:36:45;;;;;;;;;16.00;14.67;;;;;;;;5099331;28;13296;-83
2022/02/24 01:39:10;;;;;;;;;21.00;13.33;;;;;;;;5099029;28;10631;-83
2022/02/24 01:41:35;;;;;;;;;20.00;18.33;;;;;;;;5097926;28;15303;-82
2022/02/24 01:44:08;;;;;;;;;16.67;16.33;;;;;;;;5100072;28;9551;-81
2022/02/24 01:46:34;;;;;;;;;20.00;17.67;;;;;;;;5099175;28;12273;-82
2022/02/24 01:48:59;;;;;;;;;17.00;15.33;;;;;;;;5099343;28;13257;-82
2022/02/24 01:51:25;;;;;;;;;19.33;13.00;;;;;;;;5098995;28;13217;-82
2022/02/24 01:53:50;;;;;;;;;20.67;15.33;;;;;;;;5099091;28;12439;-82
2022/02/24 01:56:16;;;;;;;;;17.00;13.00;;;;;;;;5100168;28;13264;-82
2022/02/24 01:58:42;;;;;;;;;16.00;13.67;;;;;;;;5099266;28;13667;-81
2022/02/24 02:01:07;;;;;;;;;16.00;14.00;;;;;;;;5098979;28;11375;-82
2022/02/24 02:03:32;;;;;;;;;14.00;14.00;;;;;;;;5099034;28;9593;-82
2022/02/24 02:05:58;;;;;;;;;17.00;14.00;;;;;;;;5099865;28;8789;-82
2022/02/24 02:08:23;;;;;;;;;19.00;15.33;;;;;;;;5097757;28;9732;-82
2022/02/24 02:10:49;;;;;;;;;16.00;15.33;;;;;;;;5099168;28;11613;-82
2022/02/24 02:13:14;;;;;;;;;16.33;12.33;;;;;;;;5097815;28;8796;-82
2022/02/24 02:15:39;;;;;;;;;14.00;13.67;;;;;;;;5099394;28;9744;-82
2022/02/24 02:18:04;;;;;;;;;16.00;13.33;;;;;;;;5098748;28;12543;-82
2022/02/24 02:20:30;;;;;;;;;16.00;14.00;;;;;;;;5099074;28;11402;-82
2022/02/24 02:22:55;;;;;;;;;19.00;14.00;;;;;;;;5099226;28;8889;-82
2022/02/24 02:25:20;;;;;;;;;14.00;13.00;;;;;;;;5098759;28;8805;-82
2022/02/24 02:27:47;;;;;;;;;13.00;10.33;;;;;;;;5098726;28;8781;-81
2022/02/24 02:30:13;;;;;;;;;18.67;14.67;;;;;;;;5097977;28;11442;-82
2022/02/24 02:32:39;;;;;;;;;16.67;15.33;;;;;;;;5098797;28;11565;-82
2022/02/24 02:35:04;;;;;;;;;16.00;13.67;;;;;;;;5098366;28;12942;-82
2022/02/24 02:37:30;;;;;;;;;16.00;14.00;;;;;;;;5098809;28;10816;-82
2022/02/24 02:39:55;;;;;;;;;17.00;14.00;;;;;;;;5098616;28;8824;-83
2022/02/24 02:42:20;;;;;;;;;16.67;16.00;;;;;;;;5098412;28;8793;-82
2022/02/24 02:44:46;;;;;;;;;13.67;12.33;;;;;;;;5098475;28;10981;-82
2022/02/24 02:47:11;;;;;;;;;17.00;14.67;;;;;;;;5099735;28;11495;-82
2022/02/24 02:49:38;;;;;;;;;19.33;16.00;;;;;;;;5097600;28;13645;-83
2022/02/24 02:52:04;;;;;;;;;19.33;16.00;;;;;;;;5098545;28;11446;-82
2022/02/24 02:54:29;;;;;;;;;13.67;11.67;;;;;;;;5098908;28;9505;-81
2022/02/24 02:56:55;;;;;;;;;19.67;16.00;;;;;;;;5098358;28;11356;-82
2022/02/24 02:59:20;;;;;;;;;17.00;14.00;;;;;;;;5098105;28;11362;-82
2022/02/24 03:01:52;;;;;;;;;17.33;16.00;;;;;;;;5097950;28;10849;-81
2022/02/24 03:04:18;;;;;;;;;2.00;0.00;;;;;;;;5098906;28;10901;-80
2022/02/24 03:06:43;;;;;;;;;14.00;12.33;;;;;;;;5098384;28;23060;-81
2022/02/24 03:09:09;;;;;;;;;15.67;14.00;;;;;;;;5097945;28;22239;-81
2022/02/24 03:11:34;;;;;;;;;15.67;12.67;;;;;;;;5096748;28;13622;-82
2022/02/24 03:14:00;;;;;;;;;14.33;13.33;;;;;;;;5098729;28;9579;-82
2022/02/24 03:16:28;;;;;;;;;16.00;11.00;;;;;;;;5098327;28;11657;-81
2022/02/24 03:18:54;;;;;;;;;20.33;17.00;;;;;;;;5098249;28;11837;-82
2022/02/24 03:21:19;;;;;;;;;17.67;13.33;;;;;;;;5098163;28;12193;-81
2022/02/24 03:23:45;;;;;;;;;13.00;13.00;;;;;;;;5099015;28;13402;-82
2022/02/24 03:26:11;;;;;;;;;21.67;17.33;;;;;;;;5099444;28;11684;-82
2022/02/24 03:28:36;;;;;;;;;16.67;16.00;;;;;;;;5098773;28;13417;-82
2022/02/24 03:31:01;;;;;;;;;20.00;17.33;;;;;;;;5099340;28;14498;-82
2022/02/24 03:33:27;;;;;;;;;20.33;16.67;;;;;;;;5099916;28;13369;-83
2022/02/24 03:35:52;;;;;;;;;21.33;18.33;;;;;;;;5107729;28;11828;-83
2022/02/24 03:38:17;;;;;;;;;24.00;18.00;;;;;;;;5099810;28;11349;-83
2022/02/24 03:40:43;;;;;;;;;19.00;17.33;;;;;;;;5098742;28;11375;-82
2022/02/24 03:43:08;;;;;;;;;20.00;18.00;;;;;;;;5098389;28;13213;-83
2022/02/24 03:45:33;;;;;;;;;20.33;15.67;;;;;;;;5098232;28;14452;-83
2022/02/24 03:47:58;;;;;;;;;21.00;16.00;;;;;;;;5098733;28;10890;-82
2022/02/24 03:50:24;;;;;;;;;18.67;16.67;;;;;;;;5097821;28;11503;-82
2022/02/24 03:52:50;;;;;;;;;15.00;14.33;;;;;;;;5096151;28;13804;-82
2022/02/24 03:55:15;;;;;;;;;22.33;16.00;;;;;;;;5098666;28;11497;-83
2022/02/24 03:57:40;;;;;;;;;17.33;16.00;;;;;;;;5098684;28;13341;-83
2022/02/24 04:00:08;;;;;;;;;17.67;13.00;;;;;;;;5097808;28;8801;-83
2022/02/24 04:02:33;;;;;;;;;18.33;16.00;;;;;;;;5097817;28;9828;-83
2022/02/24 04:05:00;;;;;;;;;16.67;12.00;;;;;;;;5096104;28;10598;-82
2022/02/24 04:07:25;;;;;;;;;33.00;31.50;;;;;;;;5098062;28;10804;-81
2022/02/24 04:09:51;;;;;;;;;18.50;17.00;;;;;;;;5098646;28;13466;-82
2022/02/24 04:12:16;;;;;;;;;18.00;15.67;;;;;;;;5097857;28;13370;-82
2022/02/24 04:14:42;;;;;;;;;18.00;16.00;;;;;;;;5098075;28;10362;-82
2022/02/24 04:17:08;;;;;;;;;16.00;15.67;;;;;;;;5097408;28;9123;-82
2022/02/24 04:19:33;;;;;;;;;15.67;15.00;;;;;;;;5097790;28;12491;-84
2022/02/24 04:21:59;;;;;;;;;13.00;13.00;;;;;;;;5099917;28;13774;-82
2022/02/24 04:24:24;;;;;;;;;15.00;15.00;;;;;;;;5101086;28;10527;-83
2022/02/24 04:26:49;;;;;;;;;12.33;12.33;;;;;;;;5098084;28;8811;-83
2022/02/24 04:29:14;;;;;;;;;18.00;13.67;;;;;;;;5096491;28;11504;-82
2022/02/24 04:31:40;;;;;;;;;13.00;13.00;;;;;;;;5097835;28;11585;-83
2022/02/24 04:34:05;;;;;;;;;13.67;13.67;;;;;;;;5097453;28;11368;-82
2022/02/24 04:36:33;;;;;;;;;16.00;12.00;;;;;;;;5098858;28;9809;-83
2022/02/24 04:38:58;;;;;;;;;20.67;16.67;;;;;;;;5098902;28;11954;-83
2022/02/24 04:41:23;;;;;;;;;21.67;19.00;;;;;;;;5098770;28;15344;-81
2022/02/24 04:43:48;;;;;;;;;24.00;21.33;;;;;;;;5100242;28;11353;-82
2022/02/24 04:46:14;;;;;;;;;16.33;14.33;;;;;;;;5099762;28;12652;-82
2022/02/24 04:48:40;;;;;;;;;21.67;21.67;;;;;;;;5100698;28;12448;-82
2022/02/24 04:51:06;;;;;;;;;20.67;19.00;;;;;;;;5100462;28;13364;-82
2022/02/24 04:53:32;;;;;;;;;19.00;16.33;;;;;;;;5100503;28;12434;-81
2022/02/24 04:55:57;;;;;;;;;20.00;19.00;;;;;;;;5100242;28;13270;-82
2022/02/24 04:58:22;;;;;;;;;22.67;20.33;;;;;;;;5100254;28;13217;-80
2022/02/24 05:00:50;;;;;;;;;17.00;17.00;;;;;;;;5098250;28;12454;-82
2022/02/24 05:03:15;;;;;;;;;21.25;20.00;;;;;;;;5100514;28;13297;-82
2022/02/24 05:05:42;;;;;;;;;17.00;16.00;;;;;;;;5100192;28;12866;-82
2022/02/24 05:08:08;;;;;;;;;21.25;18.50;;;;;;;;5100022;28;12310;-82
2022/02/24 05:10:33;;;;;;;;;22.00;19.33;;;;;;;;5099695;28;13222;-82
2022/02/24 05:12:59;;;;;;;;;15.25;11.75;;;;;;;;5100064;28;12545;-82
2022/02/24 05:15:24;;;;;;;;;21.50;19.75;;;;;;;;5098463;28;14414;-82
2022/02/24 05:17:50;;;;;;;;;21.50;17.75;;;;;;;;5100302;28;13635;-82
2022/02/24 05:20:15;;;;;;;;;21.33;20.00;;;;;;;;5100460;28;8816;-83
2022/02/24 05:22:41;;;;;;;;;21.75;20.25;;;;;;;;5100484;28;12747;-82
2022/02/24 05:25:07;;;;;;;;;22.25;19.25;;;;;;;;5100850;28;8987;-83
2022/02/24 05:27:33;;;;;;;;;18.33;18.33;;;;;;;;5099955;28;10687;-83
2022/02/24 05:29:58;;;;;;;;;16.00;15.00;;;;;;;;5099670;28;10338;-83
2022/02/24 05:32:23;;;;;;;;;18.00;18.00;;;;;;;;5099728;28;11516;-82
2022/02/24 05:34:52;;;;;;;;;21.25;21.25;;;;;;;;5098112;28;9325;-83
2022/02/24 05:37:18;;;;;;;;;18.25;17.00;;;;;;;;5100057;28;13525;-82
2022/02/24 05:39:43;;;;;;;;;11.00;9.00;;;;;;;;5100763;28;13392;-83
2022/02/24 05:42:08;;;;;;;;;17.75;17.50;;;;;;;;5099119;28;21882;-82
2022/02/24 05:44:37;;;;;;;;;20.50;17.00;;;;;;;;5099392;28;21552;-82
2022/02/24 05:47:02;;;;;;;;;20.50;19.00;;;;;;;;5099905;28;13562;-84
2022/02/24 05:49:27;;;;;;;;;25.00;23.00;;;;;;;;5098080;28;9112;-78
2022/02/24 05:51:53;;;;;;;;;23.00;17.50;;;;;;;;5100221;28;11385;-86
2022/02/24 05:54:18;;;;;;;;;18.75;18.75;;;;;;;;5099996;28;12219;-77
2022/02/24 05:56:43;;;;;;;;;23.75;20.00;;;;;;;;5099673;28;13452;-79
2022/02/24 05:59:09;;;;;;;;;18.00;17.00;;;;;;;;5099318;28;13365;-78
2022/02/24 06:01:34;;;;;;;;;25.25;23.00;;;;;;;;5099468;28;12496;-76
2022/02/24 06:03:59;;;;;;;;;23.00;20.25;;;;;;;;5099384;28;12194;-77
2022/02/24 06:06:25;;;;;;;;;22.00;20.00;;;;;;;;5099231;28;11626;-76
2022/02/24 06:08:50;;;;;;;;;27.75;23.00;;;;;;;;5099150;28;11609;-78
2022/02/24 06:11:15;;;;;;;;;27.00;24.00;;;;;;;;5099189;28;10396;-76
2022/02/24 06:13:41;;;;;;;;;28.00;23.75;;;;;;;;5097426;28;11624;-77
2022/02/24 06:16:07;;;;;;;;;24.50;23.00;;;;;;;;5099163;28;11374;-78
2022/02/24 06:18:34;;;;;;;;;26.75;24.25;;;;;;;;5099242;28;11583;-77
2022/02/24 06:21:00;;;;;;;;;26.50;26.25;;;;;;;;5099105;28;11409;-78
2022/02/24 06:23:25;;;;;;;;;30.50;28.00;;;;;;;;5086083;28;9716;-76
2022/02/24 06:25:51;;;;;;;;;26.50;25.25;;;;;;;;5086943;28;13777;-82
2022/02/24 06:28:16;;;;;;;;;26.75;23.00;;;;;;;;5087963;28;13640;-82
2022/02/24 06:30:41;;;;;;;;;30.75;30.50;;;;;;;;5088679;28;10820;-81
2022/02/24 06:33:07;;;;;;;;;35.25;30.00;;;;;;;;5089482;28;13314;-86
2022/02/24 06:35:32;;;;;;;;;29.50;28.75;;;;;;;;5088570;28;12437;-86
2022/02/24 06:37:59;;;;;;;;;32.00;27.25;;;;;;;;5085482;28;15543;-82
2022/02/24 06:40:24;;;;;;;;;34.75;32.25;;;;;;;;5083958;28;14982;-79
2022/02/24 06:42:50;;;;;;;;;37.25;33.00;;;;;;;;5086474;28;12732;-83
2022/02/24 06:45:15;;;;;;;;;27.75;26.75;;;;;;;;5084673;28;13481;-81
2022/02/24 06:47:40;;;;;;;;;33.50;31.25;;;;;;;;5084087;28;15800;-80
2022/02/24 06:50:07;;;;;;;;;27.00;22.25;;;;;;;;5076650;28;12709;-77
2022/02/24 06:52:33;;;;;;;;;27.75;26.75;;;;;;;;5077372;28;12299;-83
2022/02/24 06:55:00;;;;;;;;;30.50;25.00;;;;;;;;5078162;28;9510;-80
2022/02/24 06:57:25;;;;;;;;;28.00;26.00;;;;;;;;5078775;28;13385;-80
2022/02/24 06:59:51;;;;;;;;;28.25;22.75;;;;;;;;5078169;28;12200;-84
2022/02/24 07:02:16;;;;;;;;;30.00;28.25;;;;;;;;5078814;28;10383;-79
2022/02/24 07:04:41;;;;;;;;;34.75;27.25;;;;;;;;5078208;28;12375;-81
2022/02/24 07:07:07;;;;;;;;;32.50;25.00;;;;;;;;5077641;28;12890;-81
2022/02/24 07:09:32;;;;;;;;;33.67;28.00;;;;;;;;5078352;28;11399;-76
2022/02/24 07:11:58;;;;;;;;;38.25;33.25;;;;;;;;5077793;28;10425;-81
2022/02/24 07:14:23;;;;;;;;;30.00;26.33;;;;;;;;5077437;28;12203;-81
2022/02/24 07:16:49;;;;;;;;;32.67;26.67;;;;;;;;5078852;28;11402;-82
2022/02/24 07:19:14;;;;;;;;;28.00;28.00;;;;;;;;5078222;28;11561;-82
2022/02/24 07:21:40;;;;;;;;;27.00;25.33;;;;;;;;5078355;28;13262;-81
2022/02/24 07:24:05;;;;;;;;;29.67;25.67;;;;;;;;5097593;28;13506;-76
2022/02/24 07:26:33;;;;;;;;;30.33;29.33;;;;;;;;5096558;28;12585;-77
2022/02/24 07:28:58;;;;;;;;;33.00;30.00;;;;;;;;5097991;28;13490;-78
2022/02/24 07:31:23;;;;;;;;;34.00;30.00;;;;;;;;5097131;28;13087;-78
2022/02/24 07:33:48;;;;;;;;;32.67;26.67;;;;;;;;5099299;28;9575;-74
2022/02/24 07:36:14;;;;;;;;;28.67;26.00;;;;;;;;5098552;28;12180;-76
2022/02/24 07:38:42;;;;;;;;;31.67;30.67;;;;;;;;5083224;28;13674;-78
2022/02/24 07:41:08;;;;;;;;;31.33;28.00;;;;;;;;5077729;28;13298;-79
2022/02/24 07:43:33;;;;;;;;;36.00;31.33;;;;;;;;5077592;28;12620;-79
2022/02/24 07:45:59;;;;;;;;;33.00;31.33;;;;;;;;5078180;28;12644;-78
2022/02/24 07:48:25;;;;;;;;;34.33;30.67;;;;;;;;5077541;28;8799;-77
2022/02/24 07:50:50;;;;;;;;;34.33;30.00;;;;;;;;5077413;28;11587;-78
2022/02/24 07:53:15;;;;;;;;;34.67;28.00;;;;;;;;5091733;28;9576;-78
2022/02/24 07:55:41;;;;;;;;;29.67;29.00;;;;;;;;5098171;28;11632;-78
2022/02/24 07:58:06;;;;;;;;;28.67;28.00;;;;;;;;5096799;28;10535;-86
2022/02/24 08:00:37;;;;;;;;;31.33;29.33;;;;;;;;5092806;28;8929;-81
2022/02/24 08:03:03;;;;;;;;;34.67;32.00;;;;;;;;5087726;28;13716;-84
2022/02/24 08:05:28;;;;;;;;;35.67;32.33;;;;;;;;5083041;28;12232;-82
2022/02/24 08:07:54;;;;;;;;;31.67;29.67;;;;;;;;5084335;28;12091;-81
2022/02/24 08:10:19;;;;;;;;;36.00;31.33;;;;;;;;5096126;28;13391;-83
2022/02/24 08:12:45;;;;;;;;;33.75;32.00;;;;;;;;5101700;28;12472;-82
2022/02/24 08:15:14;;;;;;;;;30.75;28.75;;;;;;;;5101461;28;11627;-84
2022/02/24 08:17:39;;;;;;;;;34.25;29.50;;;;;;;;5100157;28;13531;-85
2022/02/24 08:20:07;;;;;;;;;30.25;28.00;;;;;;;;5091805;28;11682;-87
2022/02/24 08:22:37;;;;;;;;;55.00;45.50;;;;;;;;5088553;28;14049;-83
2022/02/24 08:25:04;;;;;;;;;50.00;41.75;;;;;;;;5088833;28;13328;-81
2022/02/24 08:27:29;;;;;;;;;32.25;28.50;;;;;;;;5089150;28;11528;-83
2022/02/24 08:29:56;;;;;;;;;29.50;27.50;;;;;;;;5089411;28;13774;-83
2022/02/24 08:32:22;;;;;;;;;34.00;30.00;;;;;;;;5090152;28;12367;-84
2022/02/24 08:34:47;;;;;;;;;24.50;21.00;;;;;;;;5087653;28;15283;-83
2022/02/24 08:37:12;;;;;;;;;31.50;31.00;;;;;;;;5090507;28;12193;-83
2022/02/24 08:39:38;;;;;;;;;31.50;30.00;;;;;;;;5088359;28;10483;-82
2022/02/24 08:42:03;;;;;;;;;32.00;32.00;;;;;;;;5089421;28;8839;-83
2022/02/24 08:44:29;;;;;;;;;32.25;28.50;;;;;;;;5087731;28;10425;-83
2022/02/24 08:46:54;;;;;;;;;34.00;32.50;;;;;;;;5084072;28;12464;-84
2022/02/24 08:49:19;;;;;;;;;36.75;33.50;;;;;;;;5089295;28;11537;-82
2022/02/24 08:51:44;;;;;;;;;32.75;32.50;;;;;;;;5087337;28;11084;-81
2022/02/24 08:54:10;;;;;;;;;36.75;33.25;;;;;;;;5086352;28;9785;-84
2022/02/24 08:56:35;;;;;;;;;33.25;33.25;;;;;;;;5086621;28;13748;-85
2022/02/24 08:59:02;;;;;;;;;32.50;30.50;;;;;;;;5078880;28;9154;-84
2022/02/24 09:01:27;;;;;;;;;30.50;30.25;;;;;;;;5088882;28;11638;-84
2022/02/24 09:03:53;;;;;;;;;37.50;29.75;;;;;;;;5088690;28;11558;-85
2022/02/24 09:22:16;;;;;;;;;35.00;31.00;;;;;;;;5127751;27;78038;-79
2022/02/24 09:24:41;;;;;;;;;35.25;34.25;;;;;;;;5132952;27;23139;-80
2022/02/24 09:27:07;;;;;;;;;37.25;35.00;;;;;;;;5128170;27;12981;-79
2022/02/24 09:29:33;;;;;;;;;41.50;35.75;;;;;;;;5141473;27;12668;-80
2022/02/24 09:31:59;;;;;;;;;37.75;32.50;;;;;;;;5133301;27;15548;-80
2022/02/24 09:34:24;;;;;;;;;44.50;37.00;;;;;;;;5135112;27;13211;-79
2022/02/24 09:36:49;;;;;;;;;41.75;37.00;;;;;;;;5134191;27;13454;-78
2022/02/24 09:39:15;;;;;;;;;38.00;35.00;;;;;;;;5136044;27;9074;-79
2022/02/24 09:41:40;;;;;;;;;39.75;35.00;;;;;;;;5131698;27;14568;-77
2022/02/24 09:44:06;;;;;;;;;41.25;35.00;;;;;;;;5124289;27;8791;-78
2022/02/24 09:46:33;;;;;;;;;36.75;33.25;;;;;;;;5132026;27;9730;-81
2022/02/24 09:48:59;;;;;;;;;41.25;33.50;;;;;;;;5131610;27;15646;-79
2022/02/24 09:51:25;;;;;;;;;42.75;36.00;;;;;;;;5139565;27;14517;-84
2022/02/24 09:53:50;;;;;;;;;43.00;36.00;;;;;;;;5135461;27;11641;-83
2022/02/24 09:56:18;;;;;;;;;35.75;32.00;;;;;;;;5142399;27;10647;-83
2022/02/24 09:58:45;;;;;;;;;38.25;32.00;;;;;;;;5143645;27;13656;-82
2022/02/24 10:01:12;;;;;;;;;35.75;32.00;;;;;;;;5144464;27;11216;-83
2022/02/24 10:03:41;;;;;;;;;41.00;34.50;;;;;;;;5141880;27;11234;-84
2022/02/24 10:06:08;;;;;;;;;42.00;34.50;;;;;;;;5142823;27;13851;-83
2022/02/24 10:08:34;;;;;;;;;43.50;36.50;;;;;;;;5146606;27;10671;-84
2022/02/24 10:11:01;;;;;;;;;39.00;33.00;;;;;;;;5138204;27;11177;-83
2022/02/24 10:13:27;;;;;;;;;43.00;35.75;;;;;;;;5144614;27;15904;-84
2022/02/24 10:15:56;;;;;;;;;42.25;34.75;;;;;;;;5147623;27;13970;-83
2022/02/24 10:18:25;;;;;;;;;38.25;32.50;;;;;;;;5140415;27;10747;-83
2022/02/24 10:20:56;;;;;;;;;43.25;35.75;;;;;;;;5144084;27;13845;-82
2022/02/24 10:23:29;;;;;;;;;43.50;37.75;;;;;;;;5141169;27;15513;-83
2022/02/24 10:25:58;;;;;;;;;44.00;35.25;;;;;;;;5143206;27;10285;-83
2022/02/24 10:28:33;;;;;;;;;41.75;36.50;;;;;;;;5144405;27;10679;-82
2022/02/24 10:31:04;;;;;;;;;43.25;35.75;;;;;;;;5133953;27;12723;-83
2022/02/24 10:33:30;;;;;;;;;36.33;32.33;;;;;;;;5132360;27;11613;-82
2022/02/24 10:36:08;;;;;;;;;42.00;35.00;;;;;;;;5120095;27;13003;-83
2022/02/24 10:38:33;;;;;;;;;42.33;37.00;;;;;;;;5132069;27;14082;-84
2022/02/24 10:40:58;;;;;;;;;42.25;36.50;;;;;;;;5132049;27;9570;-82
2022/02/24 10:43:29;;;;;;;;;42.00;35.50;;;;;;;;5122977;27;9119;-84
2022/02/24 10:46:01;;;;;;;;;42.50;35.75;;;;;;;;5129314;27;10347;-81
2022/02/24 10:48:27;;;;;;;;;42.75;36.75;;;;;;;;5129768;27;9830;-82
2022/02/24 10:50:56;;;;;;;;;42.33;36.00;;;;;;;;5131260;27;10762;-84
2022/02/24 10:53:42;;;;;;;;;43.25;37.00;;;;;;;;5130802;27;8921;-82
2022/02/24 10:56:08;;;;;;;;;36.00;32.33;;;;;;;;5130135;27;9505;-82
2022/02/24 10:58:41;;;;;;;;;41.67;35.67;;;;;;;;5129285;27;13628;-83
2022/02/24 11:01:18;;;;;;;;;44.67;36.67;;;;;;;;5130188;27;14090;-81
2022/02/24 11:03:47;;;;;;;;;41.50;35.00;;;;;;;;5161247;27;9418;-84
2022/02/24 11:06:13;;;;;;;;;43.67;37.00;;;;;;;;5128909;27;12038;-82
2022/02/24 11:08:39;;;;;;;;;42.33;36.00;;;;;;;;5127146;27;10600;-82
2022/02/24 11:11:05;;;;;;;;;44.67;36.67;;;;;;;;5141246;27;10445;-86
2022/02/24 11:13:31;;;;;;;;;40.00;35.00;;;;;;;;5140760;27;11933;-82
2022/02/24 11:15:56;;;;;;;;;41.33;35.67;;;;;;;;5141797;27;11443;-82
2022/02/24 11:18:22;;;;;;;;;40.33;34.67;;;;;;;;5141729;27;11406;-82
2022/02/24 11:20:48;;;;;;;;;42.33;36.67;;;;;;;;5140221;27;11523;-81
2022/02/24 11:23:13;;;;;;;;;42.25;36.00;;;;;;;;5140866;27;11493;-82
2022/02/24 11:25:46;;;;;;;;;44.75;37.75;;;;;;;;5141183;27;8796;-82
2022/02/24 11:28:14;;;;;;;;;44.50;37.00;;;;;;;;5141630;27;12937;-81
2022/02/24 11:30:41;;;;;;;;;42.75;36.75;;;;;;;;5141094;27;10524;-81
2022/02/24 11:33:07;;;;;;;;;43.25;35.75;;;;;;;;5141184;27;11605;-80
2022/02/24 11:35:32;;;;;;;;;45.25;37.75;;;;;;;;5139265;27;10999;-82
2022/02/24 11:38:10;;;;;;;;;42.25;36.25;;;;;;;;5141047;27;8869;-81
2022/02/24 11:40:38;;;;;;;;;45.75;36.25;;;;;;;;5139375;27;12996;-81
2022/02/24 11:43:19;;;;;;;;;41.75;35.25;;;;;;;;5140908;27;12193;-79
2022/02/24 11:45:44;;;;;;;;;39.75;33.50;;;;;;;;5125219;27;11481;-77
2022/02/24 11:48:13;;;;;;;;;40.00;35.50;;;;;;;;5118654;28;13254;-77
2022/02/24 11:50:54;;;;;;;;;38.50;33.50;;;;;;;;5115744;28;12465;-76
2022/02/24 11:53:22;;;;;;;;;39.25;32.50;;;;;;;;5098436;28;13375;-80
2022/02/24 11:55:49;;;;;;;;;33.00;31.00;;;;;;;;5100795;28;11481;-85
2022/02/24 11:58:29;;;;;;;;;34.50;31.50;;;;;;;;5095308;28;12400;-83
2022/02/24 12:01:07;;;;;;;;;35.00;31.50;;;;;;;;5099525;28;11587;-85
2022/02/24 12:03:44;;;;;;;;;35.75;33.00;;;;;;;;5133264;27;11511;-87
2022/02/24 12:06:14;;;;;;;;;32.50;30.50;;;;;;;;5139033;27;11556;-83
2022/02/24 12:08:58;;;;;;;;;33.50;29.00;;;;;;;;5136128;27;11578;-85
2022/02/24 12:11:31;;;;;;;;;24.00;24.00;;;;;;;;5133610;27;12458;-83
2022/02/24 12:13:56;;;;;;;;;28.50;27.75;;;;;;;;5126523;27;14708;-82
2022/02/24 12:16:23;;;;;;;;;29.25;28.00;;;;;;;;5120368;28;11475;-83
2022/02/24 12:18:49;;;;;;;;;23.25;22.00;;;;;;;;5139536;27;11467;-80
2022/02/24 12:21:30;;;;;;;;;27.50;23.50;;;;;;;;5138669;27;11496;-79
2022/02/24 12:23:56;;;;;;;;;17.25;16.25;;;;;;;;5119435;27;12202;-78
2022/02/24 12:26:40;;;;;;;;;13.00;13.00;;;;;;;;5115936;28;15593;-81
2022/02/24 12:29:19;;;;;;;;;14.00;12.50;;;;;;;;5120569;27;12136;-80
2022/02/24 12:31:45;;;;;;;;;15.50;14.00;;;;;;;;5116932;28;11827;-81
2022/02/24 12:34:10;;;;;;;;;14.50;13.00;;;;;;;;5118090;28;13550;-79
2022/02/24 12:36:36;;;;;;;;;12.75;11.00;;;;;;;;5119659;27;11516;-82
2022/02/24 12:39:04;;;;;;;;;10.25;9.00;;;;;;;;5116108;28;10924;-82
2022/02/24 12:41:29;;;;;;;;;10.50;10.50;;;;;;;;5116506;28;23891;-83
2022/02/24 12:43:57;;;;;;;;;9.00;8.00;;;;;;;;5117616;27;21916;-82
2022/02/24 12:46:22;;;;;;;;;8.00;8.00;;;;;;;;5114811;28;22443;-82
2022/02/24 12:48:48;;;;;;;;;13.50;11.00;;;;;;;;5118069;28;11170;-80
2022/02/24 12:51:23;;;;;;;;;10.50;9.75;;;;;;;;5115636;28;22892;-79
2022/02/24 12:53:48;;;;;;;;;8.25;8.25;;;;;;;;5115996;28;23347;-80
2022/02/24 12:56:15;;;;;;;;;8.50;8.00;;;;;;;;5117680;27;21654;-80
2022/02/24 12:58:43;;;;;;;;;7.75;7.75;;;;;;;;5116125;28;9757;-80
2022/02/24 13:01:08;;;;;;;;;5.75;5.75;;;;;;;;5117842;28;12531;-81
2022/02/24 13:03:34;;;;;;;;;7.00;7.00;;;;;;;;5118126;27;11430;-82
2022/02/24 13:06:01;;;;;;;;;10.75;7.00;;;;;;;;5116987;28;13532;-81
2022/02/24 13:11:14;;;;;;;;;7.50;7.50;;;;;;;;5113585;28;21334;-78
2022/02/24 13:13:40;;;;;;;;;7.50;6.75;;;;;;;;5116532;27;11441;-76
2022/02/24 13:16:07;;;;;;;;;8.25;6.00;;;;;;;;5117056;27;12163;-77
2022/02/24 13:19:00;;;;;;;;;4.00;4.00;;;;;;;;5115260;28;13620;-76
2022/02/24 13:21:28;;;;;;;;;3.00;3.00;;;;;;;;5114554;28;12157;-78
2022/02/24 13:23:57;;;;;;;;;2.50;2.50;;;;;;;;5117374;28;11391;-78
2022/02/24 13:26:29;;;;;;;;;3.00;3.00;;;;;;;;5117869;27;11567;-77
2022/02/24 13:28:54;;;;;;;;;3.50;3.00;;;;;;;;5120119;27;11874;-79
2022/02/24 13:31:19;;;;;;;;;4.00;3.00;;;;;;;;5129437;27;11419;-78
2022/02/24 13:33:46;;;;;;;;;6.25;3.50;;;;;;;;5128525;27;9496;-77
2022/02/24 13:36:12;;;;;;;;;5.25;4.25;;;;;;;;5126540;27;13264;-82
2022/02/24 13:38:39;;;;;;;;;4.00;4.00;;;;;;;;5127578;27;11310;-81
2022/02/24 13:41:07;;;;;;;;;3.75;3.75;;;;;;;;5123854;27;13741;-80
2022/02/24 13:43:36;;;;;;;;;3.25;3.00;;;;;;;;5127149;27;12692;-80
2022/02/24 13:46:03;;;;;;;;;6.00;4.00;;;;;;;;5125848;27;11599;-80
2022/02/24 13:48:36;;;;;;;;;3.50;3.50;;;;;;;;5127825;27;11374;-80
2022/02/24 13:51:02;;;;;;;;;5.00;3.50;;;;;;;;5128868;27;11395;-81
2022/02/24 13:53:30;;;;;;;;;4.00;3.00;;;;;;;;5127270;27;11506;-79
2022/02/24 13:55:55;;;;;;;;;4.25;4.25;;;;;;;;5126031;27;13464;-80
2022/02/24 13:58:24;;;;;;;;;4.75;4.75;;;;;;;;5129346;27;11412;-78
2022/02/24 14:00:53;;;;;;;;;6.00;4.50;;;;;;;;5117105;28;8942;-80
2022/02/24 14:03:20;;;;;;;;;5.00;5.00;;;;;;;;5116497;27;12353;-79
2022/02/24 14:05:45;;;;;;;;;5.75;5.75;;;;;;;;5116893;27;12639;-78
2022/02/24 14:08:10;;;;;;;;;6.50;6.00;;;;;;;;5119502;27;11514;-79
2022/02/24 14:10:36;;;;;;;;;6.25;5.50;;;;;;;;5119894;28;11461;-79
2022/02/24 14:13:01;;;;;;;;;7.75;6.75;;;;;;;;5119370;27;10433;-79
2022/02/24 14:15:26;;;;;;;;;6.00;6.00;;;;;;;;5119982;28;11581;-78
2022/02/24 14:17:52;;;;;;;;;8.75;6.50;;;;;;;;5120343;27;12543;-81
2022/02/24 14:20:25;;;;;;;;;8.50;8.50;;;;;;;;5119462;27;12744;-79
2022/02/24 14:22:51;;;;;;;;;11.50;9.00;;;;;;;;5118931;28;12423;-80
2022/02/24 14:25:16;;;;;;;;;7.25;7.25;;;;;;;;5116698;27;21461;-78
2022/02/24 14:27:41;;;;;;;;;7.50;7.00;;;;;;;;5113979;27;23009;-80
2022/02/24 14:30:10;;;;;;;;;7.25;7.00;;;;;;;;5120108;27;8903;-79
2022/02/24 14:32:36;;;;;;;;;11.00;8.50;;;;;;;;5121345;27;8821;-78
2022/02/24 14:35:03;;;;;;;;;6.75;6.75;;;;;;;;5119489;28;21750;-78
2022/02/24 14:37:28;;;;;;;;;8.00;8.00;;;;;;;;5117401;28;21800;-79
2022/02/24 14:39:53;;;;;;;;;8.50;8.50;;;;;;;;5119747;27;11455;-79